sensor_id;sensor_type;location;lat;lon;timestamp;pressure;altitude;pressure_sealevel;temperature;humidity
75640;BME280;64233;51.486;6.332;2022-12-29T00:01:42;99904.44;;;9.53;100.00
75640;BME280;64233;51.486;6.332;2022-12-29T00:04:10;99899.06;;;9.47;100.00
75640;BME280;64233;51.486;6.332;2022-12-29T00:06:36;99887.22;;;9.28;100.00
75640;BME280;64233;51.486;6.332;2022-12-29T00:09:01;99881.88;;;9.28;100.00
75640;BME280;64233;51.486;6.332;2022-12-29T00:11:27;99868.47;;;9.28;100.00
75640;BME280;64233;51.486;6.332;2022-12-29T00:13:53;99874.38;;;9.30;100.00
75640;BME280;64233;51.486;6.332;2022-12-29T00:16:41;99877.84;;;9.25;100.00
75640;BME280;64233;51.486;6.332;2022-12-29T00:19:06;99862.31;;;9.22;100.00
75640;BME280;64233;51.486;6.332;2022-12-29T00:21:52;99858.59;;;9.34;100.00
75640;BME280;64233;51.486;6.332;2022-12-29T00:24:36;99863.97;;;9.39;100.00
75640;BME280;64233;51.486;6.332;2022-12-29T00:27:20;99860.19;;;9.40;100.00
75640;BME280;64233;51.486;6.332;2022-12-29T00:30:09;99855.38;;;9.42;100.00
75640;BME280;64233;51.486;6.332;2022-12-29T00:32:54;99862.91;;;9.60;100.00
75640;BME280;64233;51.486;6.332;2022-12-29T00:35:39;99855.13;;;9.48;100.00
75640;BME280;64233;51.486;6.332;2022-12-29T00:38:08;99844.16;;;9.55;100.00
75640;BME280;64233;51.486;6.332;2022-12-29T00:41:13;99839.88;;;9.54;100.00
75640;BME280;64233;51.486;6.332;2022-12-29T00:43:57;99835.06;;;9.61;100.00
75640;BME280;64233;51.486;6.332;2022-12-29T00:46:38;99825.94;;;9.62;100.00
75640;BME280;64233;51.486;6.332;2022-12-29T00:49:05;99835.59;;;9.53;100.00
75640;BME280;64233;51.486;6.332;2022-12-29T00:51:49;99827.81;;;9.41;100.00
75640;BME280;64233;51.486;6.332;2022-12-29T00:54:15;99833.97;;;9.47;100.00
75640;BME280;64233;51.486;6.332;2022-12-29T00:56:40;99822.19;;;9.53;100.00
75640;BME280;64233;51.486;6.332;2022-12-29T00:59:08;99810.41;;;9.54;100.00
75640;BME280;64233;51.486;6.332;2022-12-29T01:01:35;99804.50;;;9.62;100.00
75640;BME280;64233;51.486;6.332;2022-12-29T01:04:00;99793.25;;;9.71;100.00
75640;BME280;64233;51.486;6.332;2022-12-29T01:06:26;99801.03;;;9.67;100.00
75640;BME280;64233;51.486;6.332;2022-12-29T01:08:51;99813.88;;;9.65;100.00
75640;BME280;64233;51.486;6.332;2022-12-29T01:11:37;99808.78;;;9.63;100.00
75640;BME280;64233;51.486;6.332;2022-12-29T01:14:02;99806.38;;;9.82;100.00
75640;BME280;64233;51.486;6.332;2022-12-29T01:16:28;99815.78;;;9.70;100.00
75640;BME280;64233;51.486;6.332;2022-12-29T01:18:53;99820.03;;;9.76;100.00
75640;BME280;64233;51.486;6.332;2022-12-29T01:21:19;99801.28;;;9.86;100.00
75640;BME280;64233;51.486;6.332;2022-12-29T01:23:44;99784.66;;;9.99;100.00
75640;BME280;64233;51.486;6.332;2022-12-29T01:26:11;99800.72;;;9.89;100.00
75640;BME280;64233;51.486;6.332;2022-12-29T01:28:36;99799.66;;;9.95;100.00
75640;BME280;64233;51.486;6.332;2022-12-29T01:31:05;99801.81;;;9.88;100.00
75640;BME280;64233;51.486;6.332;2022-12-29T01:33:30;99807.19;;;9.88;100.00
75640;BME280;64233;51.486;6.332;2022-12-29T01:36:03;99796.97;;;10.06;100.00
75640;BME280;64233;51.486;6.332;2022-12-29T01:38:29;99807.19;;;9.88;100.00
75640;BME280;64233;51.486;6.332;2022-12-29T01:40:55;99806.88;;;9.95;100.00
75640;BME280;64233;51.486;6.332;2022-12-29T01:43:20;99796.44;;;9.93;100.00
75640;BME280;64233;51.486;6.332;2022-12-29T01:45:50;99800.97;;;10.13;100.00
75640;BME280;64233;51.486;6.332;2022-12-29T01:48:17;99800.72;;;9.99;100.00
75640;BME280;64233;51.486;6.332;2022-12-29T01:50:50;99795.34;;;10.05;100.00
75640;BME280;64233;51.486;6.332;2022-12-29T01:53:27;99796.41;;;10.09;100.00
75640;BME280;64233;51.486;6.332;2022-12-29T01:55:59;99781.34;;;10.33;99.18
75640;BME280;64233;51.486;6.332;2022-12-29T01:58:29;99792.09;;;10.28;99.44
75640;BME280;64233;51.486;6.332;2022-12-29T02:00:56;99789.69;;;10.27;99.47
75640;BME280;64233;51.486;6.332;2022-12-29T02:03:23;99795.84;;;10.27;99.28
75640;BME280;64233;51.486;6.332;2022-12-29T02:06:14;99783.25;;;10.28;99.03
75640;BME280;64233;51.486;6.332;2022-12-29T02:08:42;99787.53;;;10.19;99.66
75640;BME280;64233;51.486;6.332;2022-12-29T02:11:11;99788.84;;;10.42;97.81
75640;BME280;64233;51.486;6.332;2022-12-29T02:13:36;99763.38;;;10.39;97.62
75640;BME280;64233;51.486;6.332;2022-12-29T02:16:36;99765.00;;;10.35;97.36
75640;BME280;64233;51.486;6.332;2022-12-29T02:19:04;99753.22;;;10.15;98.37
75640;BME280;64233;51.486;6.332;2022-12-29T02:24:33;99741.09;;;10.49;95.79
75640;BME280;64233;51.486;6.332;2022-12-29T02:39:09;99751.03;;;10.33;96.25
75640;BME280;64233;51.486;6.332;2022-12-29T02:41:28;99730.91;;;10.30;95.77
75640;BME280;64233;51.486;6.332;2022-12-29T02:52:52;99749.25;;;9.97;99.09
75640;BME280;64233;51.486;6.332;2022-12-29T02:55:21;99751.38;;;10.11;97.93
75640;BME280;64233;51.486;6.332;2022-12-29T02:57:46;99747.09;;;10.05;98.37
75640;BME280;64233;51.486;6.332;2022-12-29T03:00:14;99748.44;;;10.07;98.13
75640;BME280;64233;51.486;6.332;2022-12-29T03:03:16;99743.59;;;10.09;98.05
75640;BME280;64233;51.486;6.332;2022-12-29T03:06:09;99742.25;;;10.12;97.90
75640;BME280;64233;51.486;6.332;2022-12-29T03:11:32;99746.53;;;10.08;98.34
75640;BME280;64233;51.486;6.332;2022-12-29T03:14:33;99737.72;;;9.97;99.50
75640;BME280;64233;51.486;6.332;2022-12-29T03:17:38;99742.06;;;9.77;100.00
75640;BME280;64233;51.486;6.332;2022-12-29T03:20:08;99736.72;;;9.67;100.00
75640;BME280;64233;51.486;6.332;2022-12-29T03:22:39;99726.81;;;9.47;100.00
75640;BME280;64233;51.486;6.332;2022-12-29T03:25:17;99727.34;;;9.54;100.00
75640;BME280;64233;51.486;6.332;2022-12-29T03:27:53;99743.69;;;9.27;100.00
75640;BME280;64233;51.486;6.332;2022-12-29T03:30:20;99754.66;;;9.15;100.00
75640;BME280;64233;51.486;6.332;2022-12-29T03:32:54;99734.31;;;9.35;100.00
75640;BME280;64233;51.486;6.332;2022-12-29T03:35:23;99738.31;;;9.01;100.00
75640;BME280;64233;51.486;6.332;2022-12-29T03:37:55;99768.25;;;8.77;100.00
75640;BME280;64233;51.486;6.332;2022-12-29T03:40:23;99744.88;;;8.52;100.00
75640;BME280;64233;51.486;6.332;2022-12-29T03:42:50;99752.03;;;8.41;100.00
75640;BME280;64233;51.486;6.332;2022-12-29T03:45:15;99740.75;;;8.34;100.00
75640;BME280;64233;51.486;6.332;2022-12-29T03:47:41;99743.44;;;8.34;100.00
75640;BME280;64233;51.486;6.332;2022-12-29T03:50:06;99714.81;;;8.35;100.00
75640;BME280;64233;51.486;6.332;2022-12-29T03:52:33;99717.00;;;8.43;100.00
75640;BME280;64233;51.486;6.332;2022-12-29T03:54:59;99710.09;;;8.47;100.00
75640;BME280;64233;51.486;6.332;2022-12-29T03:57:24;99726.63;;;8.44;100.00
75640;BME280;64233;51.486;6.332;2022-12-29T03:59:49;99717.00;;;8.43;100.00
75640;BME280;64233;51.486;6.332;2022-12-29T04:02:14;99741.03;;;8.33;100.00
75640;BME280;64233;51.486;6.332;2022-12-29T04:04:40;99718.84;;;8.37;100.00
75640;BME280;64233;51.486;6.332;2022-12-29T04:07:05;99709.19;;;8.26;100.00
75640;BME280;64233;51.486;6.332;2022-12-29T04:09:30;99731.38;;;8.26;100.00
75640;BME280;64233;51.486;6.332;2022-12-29T04:11:56;99719.34;;;8.29;100.00
75640;BME280;64233;51.486;6.332;2022-12-29T04:14:21;99746.13;;;8.34;100.00
75640;BME280;64233;51.486;6.332;2022-12-29T04:16:46;99735.13;;;8.31;100.00
75640;BME280;64233;51.486;6.332;2022-12-29T04:19:12;99729.28;;;8.34;100.00
75640;BME280;64233;51.486;6.332;2022-12-29T04:21:37;99719.75;;;8.58;100.00
75640;BME280;64233;51.486;6.332;2022-12-29T04:24:03;99725.34;;;8.47;100.00
75640;BME280;64233;51.486;6.332;2022-12-29T04:26:31;99713.22;;;8.39;100.00
75640;BME280;64233;51.486;6.332;2022-12-29T04:28:56;99704.91;;;8.30;100.00
75640;BME280;64233;51.486;6.332;2022-12-29T04:31:22;99710.50;;;8.23;100.00
75640;BME280;64233;51.486;6.332;2022-12-29T04:33:47;99707.06;;;8.33;100.00
75640;BME280;64233;51.486;6.332;2022-12-29T04:36:12;99727.63;;;8.27;100.00
75640;BME280;64233;51.486;6.332;2022-12-29T04:38:37;99755.41;;;8.21;100.00
75640;BME280;64233;51.486;6.332;2022-12-29T04:41:03;99748.94;;;8.12;100.00
75640;BME280;64233;51.486;6.332;2022-12-29T04:43:28;99756.97;;;8.12;100.00
75640;BME280;64233;51.486;6.332;2022-12-29T04:45:54;99754.59;;;8.16;100.00
75640;BME280;64233;51.486;6.332;2022-12-29T04:48:19;99756.13;;;8.06;100.00
75640;BME280;64233;51.486;6.332;2022-12-29T04:50:47;99753.97;;;8.03;100.00
75640;BME280;64233;51.486;6.332;2022-12-29T04:53:14;99744.69;;;8.16;100.00
75640;BME280;64233;51.486;6.332;2022-12-29T04:55:39;99758.03;;;8.11;100.00
75640;BME280;64233;51.486;6.332;2022-12-29T04:58:04;99754.50;;;8.00;100.00
75640;BME280;64233;51.486;6.332;2022-12-29T05:00:30;99746.25;;;8.07;100.00
75640;BME280;64233;51.486;6.332;2022-12-29T05:02:55;99737.69;;;8.05;100.00
75640;BME280;64233;51.486;6.332;2022-12-29T05:05:20;99737.16;;;8.08;100.00
75640;BME280;64233;51.486;6.332;2022-12-29T05:07:45;99723.59;;;8.20;100.00
75640;BME280;64233;51.486;6.332;2022-12-29T05:10:11;99735.59;;;8.17;100.00
75640;BME280;64233;51.486;6.332;2022-12-29T05:12:37;99735.13;;;8.31;100.00
75640;BME280;64233;51.486;6.332;2022-12-29T05:15:04;99729.41;;;8.06;100.00
75640;BME280;64233;51.486;6.332;2022-12-29T05:17:30;99732.66;;;8.19;100.00
75640;BME280;64233;51.486;6.332;2022-12-29T05:19:55;99721.75;;;8.25;100.00
75640;BME280;64233;51.486;6.332;2022-12-29T05:22:20;99746.00;;;8.14;100.00
75640;BME280;64233;51.486;6.332;2022-12-29T05:24:46;99753.44;;;8.06;100.00
75640;BME280;64233;51.486;6.332;2022-12-29T05:27:11;99742.09;;;8.26;100.00
75640;BME280;64233;51.486;6.332;2022-12-29T05:29:36;99749.28;;;8.21;100.00
75640;BME280;64233;51.486;6.332;2022-12-29T05:32:02;99755.94;;;8.18;100.00
75640;BME280;64233;51.486;6.332;2022-12-29T05:34:27;99759.44;;;8.29;100.00
75640;BME280;64233;51.486;6.332;2022-12-29T05:36:52;99761.31;;;8.28;100.00
75640;BME280;64233;51.486;6.332;2022-12-29T05:39:18;99752.22;;;8.24;100.00
75640;BME280;64233;51.486;6.332;2022-12-29T05:41:43;99768.56;;;8.28;100.00
75640;BME280;64233;51.486;6.332;2022-12-29T05:44:10;99774.19;;;8.37;100.00
75640;BME280;64233;51.486;6.332;2022-12-29T05:46:35;99777.78;;;8.53;100.00
75640;BME280;64233;51.486;6.332;2022-12-29T05:49:00;99781.84;;;8.60;100.00
75640;BME280;64233;51.486;6.332;2022-12-29T05:51:25;99779.97;;;8.71;100.00
75640;BME280;64233;51.486;6.332;2022-12-29T05:53:51;99795.59;;;8.37;100.00
75640;BME280;64233;51.486;6.332;2022-12-29T05:56:16;99802.75;;;8.26;100.00
75640;BME280;64233;51.486;6.332;2022-12-29T05:58:41;99804.59;;;8.20;100.00
75640;BME280;64233;51.486;6.332;2022-12-29T06:01:07;99798.47;;;8.25;100.00
75640;BME280;64233;51.486;6.332;2022-12-29T06:03:32;99797.44;;;8.36;100.00
75640;BME280;64233;51.486;6.332;2022-12-29T06:05:57;99812.22;;;8.44;100.00
75640;BME280;64233;51.486;6.332;2022-12-29T06:08:23;99814.31;;;8.42;100.00
75640;BME280;64233;51.486;6.332;2022-12-29T06:10:49;99814.09;;;8.43;100.00
75640;BME280;64233;51.486;6.332;2022-12-29T06:13:14;99827.94;;;8.35;100.00
75640;BME280;64233;51.486;6.332;2022-12-29T06:15:40;99829.91;;;8.50;100.00
75640;BME280;64233;51.486;6.332;2022-12-29T06:18:05;99828.22;;;8.39;100.00
75640;BME280;64233;51.486;6.332;2022-12-29T06:20:30;99825.13;;;8.52;100.00
75640;BME280;64233;51.486;6.332;2022-12-29T06:22:55;99831.00;;;8.49;100.00
75640;BME280;64233;51.486;6.332;2022-12-29T06:25:21;99837.97;;;8.55;100.00
75640;BME280;64233;51.486;6.332;2022-12-29T06:27:46;99836.16;;;8.71;100.00
75640;BME280;64233;51.486;6.332;2022-12-29T06:30:11;99835.34;;;8.60;100.00
75640;BME280;64233;51.486;6.332;2022-12-29T06:32:38;99856.13;;;8.53;100.00
75640;BME280;64233;51.486;6.332;2022-12-29T06:35:04;99842.31;;;8.67;100.00
75640;BME280;64233;51.486;6.332;2022-12-29T06:37:31;99839.06;;;8.65;100.00
75640;BME280;64233;51.486;6.332;2022-12-29T06:39:56;99848.94;;;8.59;100.00
75640;BME280;64233;51.486;6.332;2022-12-29T06:42:21;99854.56;;;8.52;100.00
75640;BME280;64233;51.486;6.332;2022-12-29T06:44:47;99842.50;;;8.50;100.00
75640;BME280;64233;51.486;6.332;2022-12-29T06:47:12;99853.88;;;8.35;100.00
75640;BME280;64233;51.486;6.332;2022-12-29T06:49:37;99844.75;;;8.31;100.00
75640;BME280;64233;51.486;6.332;2022-12-29T06:52:03;99847.94;;;8.27;100.00
75640;BME280;64233;51.486;6.332;2022-12-29T06:54:29;99839.75;;;8.39;100.00
75640;BME280;64233;51.486;6.332;2022-12-29T06:56:54;99848.09;;;8.53;100.00
75640;BME280;64233;51.486;6.332;2022-12-29T06:59:20;99854.03;;;8.55;100.00
75640;BME280;64233;51.486;6.332;2022-12-29T07:01:45;99859.34;;;8.50;100.00
75640;BME280;64233;51.486;6.332;2022-12-29T07:04:10;99849.47;;;8.56;100.00
75640;BME280;64233;51.486;6.332;2022-12-29T07:06:35;99865.81;;;8.65;100.00
75640;BME280;64233;51.486;6.332;2022-12-29T07:09:01;99859.44;;;8.71;100.00
75640;BME280;64233;51.486;6.332;2022-12-29T07:11:26;99851.66;;;8.64;100.00
75640;BME280;64233;51.486;6.332;2022-12-29T07:13:51;99850.59;;;8.70;100.00
75640;BME280;64233;51.486;6.332;2022-12-29T07:16:17;99860.53;;;8.75;100.00
75640;BME280;64233;51.486;6.332;2022-12-29T07:18:42;99847.69;;;8.72;100.00
75640;BME280;64233;51.486;6.332;2022-12-29T07:21:07;99845.25;;;8.70;99.65
75640;BME280;64233;51.486;6.332;2022-12-29T07:23:33;99856.03;;;8.81;98.87
75640;BME280;64233;51.486;6.332;2022-12-29T07:25:59;99860.81;;;8.73;99.42
75640;BME280;64233;51.486;6.332;2022-12-29T07:28:25;99857.66;;;8.92;97.93
75640;BME280;64233;51.486;6.332;2022-12-29T07:30:50;99876.41;;;8.92;98.06
75640;BME280;64233;51.486;6.332;2022-12-29T07:33:15;99866.75;;;8.91;97.70
75640;BME280;64233;51.486;6.332;2022-12-29T07:35:40;99863.31;;;9.01;96.65
75640;BME280;64233;51.486;6.332;2022-12-29T07:38:06;99852.94;;;9.25;94.01
75640;BME280;64233;51.486;6.332;2022-12-29T07:40:31;99871.63;;;8.99;95.85
75640;BME280;64233;51.486;6.332;2022-12-29T07:42:56;99869.78;;;9.15;92.81
75640;BME280;64233;51.486;6.332;2022-12-29T07:45:21;99856.63;;;9.08;92.35
75640;BME280;64233;51.486;6.332;2022-12-29T07:47:48;99879.16;;;9.18;90.52
75640;BME280;64233;51.486;6.332;2022-12-29T07:50:14;99893.22;;;8.82;92.88
75640;BME280;64233;51.486;6.332;2022-12-29T07:52:39;99894.09;;;8.98;91.47
75640;BME280;64233;51.486;6.332;2022-12-29T07:55:05;99897.84;;;9.02;91.07
75640;BME280;64233;51.486;6.332;2022-12-29T07:57:30;99902.13;;;8.98;91.96
75640;BME280;64233;51.486;6.332;2022-12-29T07:59:55;99913.06;;;8.91;92.57
75640;BME280;64233;51.486;6.332;2022-12-29T08:02:21;99897.13;;;9.22;89.41
75640;BME280;64233;51.486;6.332;2022-12-29T08:04:46;99902.22;;;9.19;89.66
75640;BME280;64233;51.486;6.332;2022-12-29T08:07:11;99879.47;;;9.37;87.56
75640;BME280;64233;51.486;6.332;2022-12-29T08:09:36;99906.19;;;9.11;89.51
75640;BME280;64233;51.486;6.332;2022-12-29T08:12:02;99919.03;;;9.14;89.04
75640;BME280;64233;51.486;6.332;2022-12-29T08:14:27;99903.78;;;9.15;88.50
75640;BME280;64233;51.486;6.332;2022-12-29T08:16:52;99922.22;;;9.01;90.00
75640;BME280;64233;51.486;6.332;2022-12-29T08:19:18;99924.06;;;8.95;90.37
75640;BME280;64233;51.486;6.332;2022-12-29T08:21:43;99913.13;;;9.07;89.82
75640;BME280;64233;51.486;6.332;2022-12-29T08:24:09;99921.72;;;9.14;89.48
75640;BME280;64233;51.486;6.332;2022-12-29T08:26:35;99922.19;;;8.95;90.95
75640;BME280;64233;51.486;6.332;2022-12-29T08:29:00;99934.53;;;9.02;90.90
75640;BME280;64233;51.486;6.332;2022-12-29T08:31:25;99927.53;;;8.90;91.82
75640;BME280;64233;51.486;6.332;2022-12-29T08:33:51;99927.25;;;8.97;91.27
75640;BME280;64233;51.486;6.332;2022-12-29T08:36:16;99910.44;;;9.07;90.71
75640;BME280;64233;51.486;6.332;2022-12-29T08:38:42;99924.53;;;8.87;92.52
75640;BME280;64233;51.486;6.332;2022-12-29T08:41:07;99915.28;;;9.05;91.62
75640;BME280;64233;51.486;6.332;2022-12-29T08:43:32;99924.88;;;9.01;92.66
75640;BME280;64233;51.486;6.332;2022-12-29T08:45:58;99927.03;;;9.04;93.00
75640;BME280;64233;51.486;6.332;2022-12-29T08:48:24;99941.47;;;8.98;93.24
75640;BME280;64233;51.486;6.332;2022-12-29T08:50:49;99931.63;;;9.13;91.90
75640;BME280;64233;51.486;6.332;2022-12-29T08:53:15;99941.56;;;9.28;91.23
75640;BME280;64233;51.486;6.332;2022-12-29T08:55:40;99930.59;;;9.25;91.86
75640;BME280;64233;51.486;6.332;2022-12-29T08:58:06;99941.34;;;9.30;91.69
75640;BME280;64233;51.486;6.332;2022-12-29T09:00:31;99923.97;;;9.43;89.71
75640;BME280;64233;51.486;6.332;2022-12-29T09:02:56;99938.13;;;9.33;90.49
75640;BME280;64233;51.486;6.332;2022-12-29T09:05:22;99932.78;;;9.33;89.79
75640;BME280;64233;51.486;6.332;2022-12-29T09:07:47;99916.69;;;9.38;89.17
75640;BME280;64233;51.486;6.332;2022-12-29T09:10:12;99910.56;;;9.38;89.21
75640;BME280;64233;51.486;6.332;2022-12-29T09:12:38;99926.88;;;9.31;89.51
75640;BME280;64233;51.486;6.332;2022-12-29T09:15:04;99933.81;;;9.27;90.54
75640;BME280;64233;51.486;6.332;2022-12-29T09:17:30;99922.31;;;9.26;90.16
75640;BME280;64233;51.486;6.332;2022-12-29T09:20:17;99922.31;;;9.37;89.30
75640;BME280;64233;51.486;6.332;2022-12-29T09:22:43;99918.59;;;9.38;88.97
75640;BME280;64233;51.486;6.332;2022-12-29T09:25:10;99938.91;;;9.28;89.71
75640;BME280;64233;51.486;6.332;2022-12-29T09:27:36;99931.44;;;9.36;89.10
75640;BME280;64233;51.486;6.332;2022-12-29T09:30:04;99931.19;;;9.42;88.79
75640;BME280;64233;51.486;6.332;2022-12-29T09:32:30;99941.31;;;9.25;90.48
75640;BME280;64233;51.486;6.332;2022-12-29T09:34:56;99936.84;;;9.46;89.27
75640;BME280;64233;51.486;6.332;2022-12-29T09:37:21;99945.41;;;9.48;89.26
75640;BME280;64233;51.486;6.332;2022-12-29T09:39:46;99943.28;;;9.50;89.70
75640;BME280;64233;51.486;6.332;2022-12-29T09:42:27;99926.16;;;9.61;87.64
75640;BME280;64233;51.486;6.332;2022-12-29T09:45:15;99945.69;;;9.52;88.50
75640;BME280;64233;51.486;6.332;2022-12-29T09:47:44;99940.34;;;9.52;88.62
75640;BME280;64233;51.486;6.332;2022-12-29T09:52:48;99942.75;;;9.53;88.95
75640;BME280;64233;51.486;6.332;2022-12-29T09:55:17;99952.16;;;9.66;87.33
75640;BME280;64233;51.486;6.332;2022-12-29T10:00:15;99961.03;;;9.77;86.53
75640;BME280;64233;51.486;6.332;2022-12-29T10:02:58;99958.59;;;9.70;87.04
75640;BME280;64233;51.486;6.332;2022-12-29T10:05:31;99958.28;;;9.56;87.63
75640;BME280;64233;51.486;6.332;2022-12-29T10:10:40;99947.09;;;9.70;86.13
75640;BME280;64233;51.486;6.332;2022-12-29T10:13:28;99980.81;;;9.71;87.59
75640;BME280;64233;51.486;6.332;2022-12-29T10:16:02;99978.16;;;9.71;87.53
75640;BME280;64233;51.486;6.332;2022-12-29T10:21:10;99977.06;;;9.67;86.36
75640;BME280;64233;51.486;6.332;2022-12-29T10:26:18;99978.41;;;9.69;85.95
75640;BME280;64233;51.486;6.332;2022-12-29T10:28:57;99990.19;;;9.63;87.88
75640;BME280;64233;51.486;6.332;2022-12-29T10:31:50;99989.44;;;9.93;85.64
75640;BME280;64233;51.486;6.332;2022-12-29T10:37:30;99984.06;;;9.78;85.68
75640;BME280;64233;51.486;6.332;2022-12-29T10:39:58;99980.81;;;9.71;86.08
75640;BME280;64233;51.486;6.332;2022-12-29T10:42:28;99998.53;;;9.77;85.61
75640;BME280;64233;51.486;6.332;2022-12-29T10:44:57;99987.03;;;9.81;86.29
75640;BME280;64233;51.486;6.332;2022-12-29T10:47:28;100007.09;;;9.74;86.65
75640;BME280;64233;51.486;6.332;2022-12-29T10:49:55;100020.50;;;9.69;87.44
75640;BME280;64233;51.486;6.332;2022-12-29T10:52:24;100016.72;;;9.64;87.21
75640;BME280;64233;51.486;6.332;2022-12-29T10:55:16;100012.72;;;9.67;85.79
75640;BME280;64233;51.486;6.332;2022-12-29T10:57:46;100032.25;;;9.57;87.22
75640;BME280;64233;51.486;6.332;2022-12-29T11:00:14;100031.94;;;9.54;87.48
75640;BME280;64233;51.486;6.332;2022-12-29T11:02:58;100012.66;;;9.57;86.18
75640;BME280;64233;51.486;6.332;2022-12-29T11:05:38;100031.94;;;9.54;87.30
75640;BME280;64233;51.486;6.332;2022-12-29T11:08:15;100046.69;;;9.56;87.00
75640;BME280;64233;51.486;6.332;2022-12-29T11:10:44;100048.03;;;9.54;87.20
75640;BME280;64233;51.486;6.332;2022-12-29T11:15:50;100063.00;;;9.50;88.16
75640;BME280;64233;51.486;6.332;2022-12-29T11:18:24;100053.16;;;9.60;86.80
75640;BME280;64233;51.486;6.332;2022-12-29T11:20:56;100055.31;;;9.58;86.67
75640;BME280;64233;51.486;6.332;2022-12-29T11:23:39;100057.97;;;9.63;86.63
75640;BME280;64233;51.486;6.332;2022-12-29T11:26:20;100047.78;;;9.60;87.01
75640;BME280;64233;51.486;6.332;2022-12-29T11:31:55;100043.25;;;9.66;86.85
75640;BME280;64233;51.486;6.332;2022-12-29T11:34:33;100060.97;;;9.67;87.27
75640;BME280;64233;51.486;6.332;2022-12-29T11:37:10;100064.72;;;9.76;86.29
75640;BME280;64233;51.486;6.332;2022-12-29T11:39:55;100080.25;;;9.64;87.30
75640;BME280;64233;51.486;6.332;2022-12-29T11:42:28;100079.41;;;9.63;87.69
75640;BME280;64233;51.486;6.332;2022-12-29T11:44:56;100083.72;;;9.64;87.14
75640;BME280;64233;51.486;6.332;2022-12-29T11:47:30;100091.78;;;9.75;85.82
75640;BME280;64233;51.486;6.332;2022-12-29T11:50:00;100101.41;;;9.71;86.45
75640;BME280;64233;51.486;6.332;2022-12-29T11:52:31;100101.94;;;9.68;86.42
75640;BME280;64233;51.486;6.332;2022-12-29T11:54:59;100096.81;;;9.61;87.30
75640;BME280;64233;51.486;6.332;2022-12-29T11:57:26;100113.72;;;9.61;86.74
75640;BME280;64233;51.486;6.332;2022-12-29T11:59:53;100097.59;;;9.56;86.68
75640;BME280;64233;51.486;6.332;2022-12-29T12:04:47;100105.34;;;9.47;87.34
75640;BME280;64233;51.486;6.332;2022-12-29T12:07:33;100114.16;;;9.48;87.31
75640;BME280;64233;51.486;6.332;2022-12-29T12:10:03;100105.59;;;9.46;87.24
75640;BME280;64233;51.486;6.332;2022-12-29T12:12:44;100118.16;;;9.45;87.44
75640;BME280;64233;51.486;6.332;2022-12-29T12:15:27;100117.69;;;9.48;87.25
75640;BME280;64233;51.486;6.332;2022-12-29T12:21:36;100130.94;;;9.28;89.30
75640;BME280;64233;51.486;6.332;2022-12-29T12:26:54;100131.22;;;9.32;89.09
75640;BME280;64233;51.486;6.332;2022-12-29T12:29:46;100132.88;;;9.38;88.41
75640;BME280;64233;51.486;6.332;2022-12-29T12:32:32;100143.25;;;9.29;89.15
75640;BME280;64233;51.486;6.332;2022-12-29T12:34:59;100122.94;;;9.38;87.31
75640;BME280;64233;51.486;6.332;2022-12-29T12:37:47;100142.03;;;9.47;87.01
75640;BME280;64233;51.486;6.332;2022-12-29T12:43:20;100137.22;;;9.49;87.19
75640;BME280;64233;51.486;6.332;2022-12-29T12:51:14;100138.84;;;9.50;86.96
75640;BME280;64233;51.486;6.332;2022-12-29T12:53:51;100150.03;;;9.42;87.57
75640;BME280;64233;51.486;6.332;2022-12-29T12:59:13;100157.66;;;9.60;87.06
75640;BME280;64233;51.486;6.332;2022-12-29T13:02:00;100155.19;;;9.54;87.86
75640;BME280;64233;51.486;6.332;2022-12-29T13:10:30;100165.59;;;9.45;88.75
75640;BME280;64233;51.486;6.332;2022-12-29T13:15:43;100154.50;;;9.31;88.78
75640;BME280;64233;51.486;6.332;2022-12-29T13:18:25;100161.28;;;9.39;88.00
75640;BME280;64233;51.486;6.332;2022-12-29T13:21:20;100176.56;;;9.43;89.40
75640;BME280;64233;51.486;6.332;2022-12-29T13:24:02;100174.19;;;9.47;88.65
75640;BME280;64233;51.486;6.332;2022-12-29T13:26:41;100169.06;;;9.40;88.45
75640;BME280;64233;51.486;6.332;2022-12-29T13:29:21;100172.47;;;9.30;89.69
75640;BME280;64233;51.486;6.332;2022-12-29T13:32:18;100178.91;;;9.35;87.86
75640;BME280;64233;51.486;6.332;2022-12-29T13:37:27;100185.00;;;9.25;89.63
75640;BME280;64233;51.486;6.332;2022-12-29T13:39:57;100186.84;;;9.19;90.02
75640;BME280;64233;51.486;6.332;2022-12-29T13:42:25;100195.66;;;9.15;90.14
75640;BME280;64233;51.486;6.332;2022-12-29T13:44:57;100187.88;;;9.13;90.05
75640;BME280;64233;51.486;6.332;2022-12-29T13:47:39;100180.91;;;9.12;90.42
75640;BME280;64233;51.486;6.332;2022-12-29T13:50:13;100188.13;;;9.11;91.73
75640;BME280;64233;51.486;6.332;2022-12-29T13:55:41;100191.97;;;8.93;92.98
75640;BME280;64233;51.486;6.332;2022-12-29T14:01:02;100204.50;;;8.88;93.39
75640;BME280;64233;51.486;6.332;2022-12-29T14:03:53;100208.03;;;8.93;92.66
75640;BME280;64233;51.486;6.332;2022-12-29T14:06:21;100205.63;;;8.92;92.98
75640;BME280;64233;51.486;6.332;2022-12-29T14:08:48;100206.94;;;8.89;94.34
75640;BME280;64233;51.486;6.332;2022-12-29T14:11:16;100214.44;;;8.92;92.66
75640;BME280;64233;51.486;6.332;2022-12-29T14:13:45;100209.88;;;8.88;92.50
75640;BME280;64233;51.486;6.332;2022-12-29T14:18:50;100210.97;;;8.92;92.14
75640;BME280;64233;51.486;6.332;2022-12-29T14:23:43;100204.53;;;8.93;91.18
75640;BME280;64233;51.486;6.332;2022-12-29T14:26:16;100211.22;;;8.90;91.86
75640;BME280;64233;51.486;6.332;2022-12-29T14:28:45;100194.94;;;8.97;90.37
75640;BME280;64233;51.486;6.332;2022-12-29T14:33:39;100214.72;;;8.91;90.99
75640;BME280;64233;51.486;6.332;2022-12-29T14:36:24;100215.88;;;9.00;89.42
75640;BME280;64233;51.486;6.332;2022-12-29T14:38:50;100216.69;;;9.01;88.87
75640;BME280;64233;51.486;6.332;2022-12-29T14:42:01;100206.75;;;9.01;88.38
75640;BME280;64233;51.486;6.332;2022-12-29T14:44:28;100206.25;;;9.04;88.24
75640;BME280;64233;51.486;6.332;2022-12-29T14:49:20;100220.41;;;9.00;88.62
75640;BME280;64233;51.486;6.332;2022-12-29T14:51:49;100219.63;;;9.04;87.62
75640;BME280;64233;51.486;6.332;2022-12-29T14:56:58;100229.72;;;8.92;88.73